sensor_id;sensor_type;location;lat;lon;timestamp;P1;durP1;ratioP1;P2;durP2;ratioP2
757;SDS011;363;48.764;9.172;2023-04-06T00:01:27;7.20;;;6.30;;
757;SDS011;363;48.764;9.172;2023-04-06T00:03:52;10.73;;;6.50;;
757;SDS011;363;48.764;9.172;2023-04-06T00:06:18;7.97;;;6.63;;
757;SDS011;363;48.764;9.172;2023-04-06T00:08:43;7.47;;;6.67;;
757;SDS011;363;48.764;9.172;2023-04-06T00:11:09;7.83;;;6.80;;
757;SDS011;363;48.764;9.172;2023-04-06T00:13:35;6.57;;;5.83;;
757;SDS011;363;48.764;9.172;2023-04-06T00:16:01;7.07;;;6.37;;
757;SDS011;363;48.764;9.172;2023-04-06T00:18:26;9.30;;;6.53;;
757;SDS011;363;48.764;9.172;2023-04-06T00:20:52;10.20;;;7.37;;
757;SDS011;363;48.764;9.172;2023-04-06T00:23:18;8.73;;;7.03;;
757;SDS011;363;48.764;9.172;2023-04-06T00:25:43;15.10;;;7.47;;
757;SDS011;363;48.764;9.172;2023-04-06T00:28:09;8.80;;;7.90;;
757;SDS011;363;48.764;9.172;2023-04-06T00:30:35;8.80;;;7.20;;
757;SDS011;363;48.764;9.172;2023-04-06T00:33:00;9.00;;;7.37;;
757;SDS011;363;48.764;9.172;2023-04-06T00:35:26;7.43;;;6.70;;
757;SDS011;363;48.764;9.172;2023-04-06T00:37:52;8.47;;;7.10;;
757;SDS011;363;48.764;9.172;2023-04-06T00:40:17;7.30;;;6.50;;
757;SDS011;363;48.764;9.172;2023-04-06T00:42:43;6.63;;;6.03;;
757;SDS011;363;48.764;9.172;2023-04-06T00:45:09;9.70;;;7.67;;
757;SDS011;363;48.764;9.172;2023-04-06T00:47:35;7.70;;;6.63;;
757;SDS011;363;48.764;9.172;2023-04-06T00:50:01;9.13;;;7.10;;
757;SDS011;363;48.764;9.172;2023-04-06T00:52:27;9.50;;;6.80;;
757;SDS011;363;48.764;9.172;2023-04-06T00:54:53;8.03;;;6.80;;
757;SDS011;363;48.764;9.172;2023-04-06T00:57:18;7.23;;;6.53;;
757;SDS011;363;48.764;9.172;2023-04-06T00:59:44;8.73;;;6.35;;
757;SDS011;363;48.764;9.172;2023-04-06T01:02:11;8.30;;;6.63;;
757;SDS011;363;48.764;9.172;2023-04-06T01:04:36;8.43;;;7.07;;
757;SDS011;363;48.764;9.172;2023-04-06T01:07:02;8.70;;;7.10;;
757;SDS011;363;48.764;9.172;2023-04-06T01:09:28;10.20;;;6.77;;
757;SDS011;363;48.764;9.172;2023-04-06T01:11:55;7.60;;;6.78;;
757;SDS011;363;48.764;9.172;2023-04-06T01:14:21;8.23;;;7.10;;
757;SDS011;363;48.764;9.172;2023-04-06T01:16:48;13.80;;;7.45;;
757;SDS011;363;48.764;9.172;2023-04-06T01:19:14;8.63;;;7.03;;
757;SDS011;363;48.764;9.172;2023-04-06T01:21:40;9.73;;;7.33;;
757;SDS011;363;48.764;9.172;2023-04-06T01:24:06;9.15;;;7.13;;
757;SDS011;363;48.764;9.172;2023-04-06T01:26:33;7.60;;;6.80;;
757;SDS011;363;48.764;9.172;2023-04-06T01:29:00;8.15;;;6.50;;
757;SDS011;363;48.764;9.172;2023-04-06T01:31:26;9.52;;;6.47;;
757;SDS011;363;48.764;9.172;2023-04-06T01:33:52;8.37;;;6.77;;
757;SDS011;363;48.764;9.172;2023-04-06T01:36:18;8.10;;;7.03;;
757;SDS011;363;48.764;9.172;2023-04-06T01:38:45;8.27;;;7.25;;
757;SDS011;363;48.764;9.172;2023-04-06T01:41:10;8.80;;;7.20;;
757;SDS011;363;48.764;9.172;2023-04-06T01:43:36;9.03;;;7.20;;
757;SDS011;363;48.764;9.172;2023-04-06T01:46:02;8.00;;;7.17;;
757;SDS011;363;48.764;9.172;2023-04-06T01:48:27;8.95;;;6.40;;
757;SDS011;363;48.764;9.172;2023-04-06T01:50:53;7.57;;;6.23;;
757;SDS011;363;48.764;9.172;2023-04-06T01:53:19;8.13;;;6.65;;
757;SDS011;363;48.764;9.172;2023-04-06T01:55:45;8.10;;;7.13;;
757;SDS011;363;48.764;9.172;2023-04-06T01:58:11;9.63;;;7.00;;
757;SDS011;363;48.764;9.172;2023-04-06T02:00:37;8.02;;;7.28;;
757;SDS011;363;48.764;9.172;2023-04-06T02:03:03;8.50;;;7.70;;
757;SDS011;363;48.764;9.172;2023-04-06T02:05:29;9.17;;;7.30;;
757;SDS011;363;48.764;9.172;2023-04-06T02:07:56;9.32;;;7.50;;
757;SDS011;363;48.764;9.172;2023-04-06T02:10:22;9.70;;;7.40;;
757;SDS011;363;48.764;9.172;2023-04-06T02:12:47;8.77;;;7.40;;
757;SDS011;363;48.764;9.172;2023-04-06T02:15:13;7.70;;;7.00;;
757;SDS011;363;48.764;9.172;2023-04-06T02:17:40;8.07;;;7.05;;
757;SDS011;363;48.764;9.172;2023-04-06T02:20:06;9.20;;;8.18;;
757;SDS011;363;48.764;9.172;2023-04-06T02:22:32;12.63;;;7.65;;
757;SDS011;363;48.764;9.172;2023-04-06T02:24:58;10.85;;;7.00;;
757;SDS011;363;48.764;9.172;2023-04-06T02:27:24;8.07;;;7.23;;
757;SDS011;363;48.764;9.172;2023-04-06T02:29:50;8.50;;;7.40;;
757;SDS011;363;48.764;9.172;2023-04-06T02:32:15;8.70;;;7.90;;
757;SDS011;363;48.764;9.172;2023-04-06T02:34:41;9.13;;;7.40;;
757;SDS011;363;48.764;9.172;2023-04-06T02:37:07;9.70;;;7.27;;
757;SDS011;363;48.764;9.172;2023-04-06T02:39:32;9.03;;;7.47;;
757;SDS011;363;48.764;9.172;2023-04-06T02:41:58;8.13;;;6.80;;
757;SDS011;363;48.764;9.172;2023-04-06T02:44:23;9.77;;;7.73;;
757;SDS011;363;48.764;9.172;2023-04-06T02:46:49;10.13;;;7.37;;
757;SDS011;363;48.764;9.172;2023-04-06T02:49:15;9.60;;;7.75;;
757;SDS011;363;48.764;9.172;2023-04-06T02:51:41;8.30;;;7.40;;
757;SDS011;363;48.764;9.172;2023-04-06T02:54:07;10.37;;;7.80;;
757;SDS011;363;48.764;9.172;2023-04-06T02:56:32;8.47;;;7.50;;
757;SDS011;363;48.764;9.172;2023-04-06T02:58:58;8.97;;;7.70;;
757;SDS011;363;48.764;9.172;2023-04-06T03:01:23;9.23;;;7.10;;
757;SDS011;363;48.764;9.172;2023-04-06T03:03:49;10.63;;;7.50;;
757;SDS011;363;48.764;9.172;2023-04-06T03:06:15;11.30;;;8.30;;
757;SDS011;363;48.764;9.172;2023-04-06T03:08:40;9.20;;;8.30;;
757;SDS011;363;48.764;9.172;2023-04-06T03:11:06;9.40;;;7.70;;
757;SDS011;363;48.764;9.172;2023-04-06T03:13:31;10.40;;;7.80;;
757;SDS011;363;48.764;9.172;2023-04-06T03:15:57;10.73;;;8.10;;
757;SDS011;363;48.764;9.172;2023-04-06T03:18:23;10.23;;;8.63;;
757;SDS011;363;48.764;9.172;2023-04-06T03:20:50;11.15;;;9.05;;
757;SDS011;363;48.764;9.172;2023-04-06T03:23:18;9.40;;;8.10;;
757;SDS011;363;48.764;9.172;2023-04-06T03:25:45;9.90;;;8.85;;
757;SDS011;363;48.764;9.172;2023-04-06T03:28:11;8.97;;;8.10;;
757;SDS011;363;48.764;9.172;2023-04-06T03:30:37;10.20;;;8.30;;
757;SDS011;363;48.764;9.172;2023-04-06T03:33:02;9.13;;;7.90;;
757;SDS011;363;48.764;9.172;2023-04-06T03:35:28;12.20;;;8.60;;
757;SDS011;363;48.764;9.172;2023-04-06T03:37:54;12.17;;;8.60;;
757;SDS011;363;48.764;9.172;2023-04-06T03:40:20;8.55;;;7.63;;
757;SDS011;363;48.764;9.172;2023-04-06T03:42:46;8.53;;;7.50;;
757;SDS011;363;48.764;9.172;2023-04-06T03:45:11;9.27;;;7.73;;
757;SDS011;363;48.764;9.172;2023-04-06T03:47:40;10.00;;;8.38;;
757;SDS011;363;48.764;9.172;2023-04-06T03:50:06;9.57;;;7.83;;
757;SDS011;363;48.764;9.172;2023-04-06T03:52:32;11.65;;;9.40;;
757;SDS011;363;48.764;9.172;2023-04-06T03:54:57;13.43;;;8.73;;
757;SDS011;363;48.764;9.172;2023-04-06T03:57:23;9.90;;;8.33;;
757;SDS011;363;48.764;9.172;2023-04-06T03:59:48;10.20;;;7.80;;
757;SDS011;363;48.764;9.172;2023-04-06T04:02:14;9.37;;;8.20;;
757;SDS011;363;48.764;9.172;2023-04-06T04:04:40;12.20;;;8.70;;
757;SDS011;363;48.764;9.172;2023-04-06T04:07:05;10.23;;;7.80;;
757;SDS011;363;48.764;9.172;2023-04-06T04:09:31;11.70;;;8.83;;
757;SDS011;363;48.764;9.172;2023-04-06T04:11:56;10.87;;;7.80;;
757;SDS011;363;48.764;9.172;2023-04-06T04:14:22;8.70;;;7.70;;
757;SDS011;363;48.764;9.172;2023-04-06T04:16:48;12.30;;;8.70;;
757;SDS011;363;48.764;9.172;2023-04-06T04:19:13;10.63;;;8.40;;
757;SDS011;363;48.764;9.172;2023-04-06T04:21:42;8.43;;;7.63;;
757;SDS011;363;48.764;9.172;2023-04-06T04:24:12;12.20;;;7.93;;
757;SDS011;363;48.764;9.172;2023-04-06T04:26:38;8.73;;;7.80;;
757;SDS011;363;48.764;9.172;2023-04-06T04:29:05;16.08;;;9.10;;
757;SDS011;363;48.764;9.172;2023-04-06T04:31:31;10.38;;;8.52;;
757;SDS011;363;48.764;9.172;2023-04-06T04:33:57;10.20;;;8.23;;
757;SDS011;363;48.764;9.172;2023-04-06T04:36:24;10.43;;;7.95;;
757;SDS011;363;48.764;9.172;2023-04-06T04:38:50;15.85;;;9.30;;
757;SDS011;363;48.764;9.172;2023-04-06T04:41:16;11.00;;;8.25;;
757;SDS011;363;48.764;9.172;2023-04-06T04:43:42;14.40;;;9.43;;
757;SDS011;363;48.764;9.172;2023-04-06T04:46:08;11.82;;;8.20;;
757;SDS011;363;48.764;9.172;2023-04-06T04:48:34;12.40;;;9.73;;
757;SDS011;363;48.764;9.172;2023-04-06T04:51:00;10.07;;;9.00;;
757;SDS011;363;48.764;9.172;2023-04-06T04:53:26;10.63;;;8.15;;
757;SDS011;363;48.764;9.172;2023-04-06T04:55:52;12.53;;;8.77;;
757;SDS011;363;48.764;9.172;2023-04-06T04:58:17;13.43;;;9.60;;
757;SDS011;363;48.764;9.172;2023-04-06T05:00:44;10.50;;;8.80;;
757;SDS011;363;48.764;9.172;2023-04-06T05:03:20;11.13;;;9.70;;
757;SDS011;363;48.764;9.172;2023-04-06T05:05:48;11.95;;;9.52;;
757;SDS011;363;48.764;9.172;2023-04-06T05:08:14;12.23;;;9.30;;
757;SDS011;363;48.764;9.172;2023-04-06T05:10:40;11.25;;;8.45;;
757;SDS011;363;48.764;9.172;2023-04-06T05:13:06;11.73;;;9.05;;
757;SDS011;363;48.764;9.172;2023-04-06T05:15:32;11.00;;;9.27;;
757;SDS011;363;48.764;9.172;2023-04-06T05:17:59;9.88;;;8.73;;
757;SDS011;363;48.764;9.172;2023-04-06T05:20:26;10.25;;;8.50;;
757;SDS011;363;48.764;9.172;2023-04-06T05:22:52;10.40;;;9.18;;
757;SDS011;363;48.764;9.172;2023-04-06T05:25:17;12.00;;;9.13;;
757;SDS011;363;48.764;9.172;2023-04-06T05:27:43;10.93;;;8.20;;
757;SDS011;363;48.764;9.172;2023-04-06T05:30:08;12.63;;;8.10;;
757;SDS011;363;48.764;9.172;2023-04-06T05:32:34;12.10;;;10.17;;
757;SDS011;363;48.764;9.172;2023-04-06T05:35:00;10.90;;;8.90;;
757;SDS011;363;48.764;9.172;2023-04-06T05:37:26;12.40;;;9.60;;
757;SDS011;363;48.764;9.172;2023-04-06T05:39:51;12.70;;;10.00;;
757;SDS011;363;48.764;9.172;2023-04-06T05:42:17;13.47;;;9.80;;
757;SDS011;363;48.764;9.172;2023-04-06T05:44:43;12.10;;;9.63;;
757;SDS011;363;48.764;9.172;2023-04-06T05:47:08;14.33;;;8.70;;
757;SDS011;363;48.764;9.172;2023-04-06T05:49:34;17.40;;;9.50;;
757;SDS011;363;48.764;9.172;2023-04-06T05:52:00;13.63;;;9.37;;
757;SDS011;363;48.764;9.172;2023-04-06T05:54:26;13.60;;;9.20;;
757;SDS011;363;48.764;9.172;2023-04-06T05:56:52;10.00;;;9.00;;
757;SDS011;363;48.764;9.172;2023-04-06T05:59:17;11.13;;;9.73;;
757;SDS011;363;48.764;9.172;2023-04-06T06:01:43;14.10;;;9.07;;
757;SDS011;363;48.764;9.172;2023-04-06T06:04:09;11.43;;;9.07;;
757;SDS011;363;48.764;9.172;2023-04-06T06:06:34;12.30;;;10.17;;
757;SDS011;363;48.764;9.172;2023-04-06T06:09:00;20.73;;;14.88;;
757;SDS011;363;48.764;9.172;2023-04-06T06:11:28;14.73;;;10.25;;
757;SDS011;363;48.764;9.172;2023-04-06T06:13:54;12.32;;;8.95;;
757;SDS011;363;48.764;9.172;2023-04-06T06:16:20;37.67;;;12.50;;
757;SDS011;363;48.764;9.172;2023-04-06T06:18:46;23.25;;;9.73;;
757;SDS011;363;48.764;9.172;2023-04-06T06:21:11;10.50;;;8.80;;
757;SDS011;363;48.764;9.172;2023-04-06T06:23:37;16.07;;;10.00;;
757;SDS011;363;48.764;9.172;2023-04-06T06:26:04;10.68;;;8.60;;
757;SDS011;363;48.764;9.172;2023-04-06T06:28:30;10.93;;;8.70;;
757;SDS011;363;48.764;9.172;2023-04-06T06:30:55;12.07;;;9.40;;
757;SDS011;363;48.764;9.172;2023-04-06T06:33:21;18.93;;;9.60;;
757;SDS011;363;48.764;9.172;2023-04-06T06:35:47;10.70;;;9.60;;
757;SDS011;363;48.764;9.172;2023-04-06T06:38:13;11.50;;;9.43;;
757;SDS011;363;48.764;9.172;2023-04-06T06:40:40;10.33;;;8.70;;
757;SDS011;363;48.764;9.172;2023-04-06T06:43:06;10.00;;;8.90;;
757;SDS011;363;48.764;9.172;2023-04-06T06:45:32;12.27;;;9.90;;
757;SDS011;363;48.764;9.172;2023-04-06T06:47:57;10.80;;;9.70;;
757;SDS011;363;48.764;9.172;2023-04-06T06:50:23;11.43;;;10.33;;
757;SDS011;363;48.764;9.172;2023-04-06T06:52:49;10.20;;;8.70;;
757;SDS011;363;48.764;9.172;2023-04-06T06:55:14;18.30;;;9.57;;
757;SDS011;363;48.764;9.172;2023-04-06T06:57:40;11.27;;;9.00;;
757;SDS011;363;48.764;9.172;2023-04-06T07:00:07;13.38;;;9.23;;
757;SDS011;363;48.764;9.172;2023-04-06T07:02:34;10.98;;;9.13;;
757;SDS011;363;48.764;9.172;2023-04-06T07:05:00;14.25;;;9.80;;
757;SDS011;363;48.764;9.172;2023-04-06T07:07:26;12.68;;;10.02;;
757;SDS011;363;48.764;9.172;2023-04-06T07:09:52;11.13;;;10.03;;
757;SDS011;363;48.764;9.172;2023-04-06T07:12:18;10.00;;;8.83;;
757;SDS011;363;48.764;9.172;2023-04-06T07:14:43;10.57;;;9.47;;
757;SDS011;363;48.764;9.172;2023-04-06T07:17:09;12.40;;;10.03;;
757;SDS011;363;48.764;9.172;2023-04-06T07:19:35;11.30;;;10.13;;
757;SDS011;363;48.764;9.172;2023-04-06T07:22:00;11.73;;;10.50;;
757;SDS011;363;48.764;9.172;2023-04-06T07:24:27;12.53;;;11.43;;
757;SDS011;363;48.764;9.172;2023-04-06T07:26:53;13.00;;;11.63;;
757;SDS011;363;48.764;9.172;2023-04-06T07:29:18;12.67;;;11.27;;
757;SDS011;363;48.764;9.172;2023-04-06T07:31:44;15.50;;;13.30;;
757;SDS011;363;48.764;9.172;2023-04-06T07:34:09;12.83;;;11.73;;
757;SDS011;363;48.764;9.172;2023-04-06T07:36:35;28.13;;;25.23;;
757;SDS011;363;48.764;9.172;2023-04-06T07:39:01;13.40;;;12.07;;
757;SDS011;363;48.764;9.172;2023-04-06T07:41:26;14.67;;;12.83;;
757;SDS011;363;48.764;9.172;2023-04-06T07:43:52;13.70;;;11.77;;
757;SDS011;363;48.764;9.172;2023-04-06T07:46:18;12.50;;;11.30;;
757;SDS011;363;48.764;9.172;2023-04-06T07:48:43;13.40;;;12.10;;
757;SDS011;363;48.764;9.172;2023-04-06T07:51:09;14.50;;;13.20;;
757;SDS011;363;48.764;9.172;2023-04-06T07:53:39;13.10;;;11.90;;
757;SDS011;363;48.764;9.172;2023-04-06T07:56:04;14.57;;;13.37;;
757;SDS011;363;48.764;9.172;2023-04-06T07:58:30;13.13;;;11.90;;
757;SDS011;363;48.764;9.172;2023-04-06T08:00:56;12.67;;;11.43;;
757;SDS011;363;48.764;9.172;2023-04-06T08:03:23;13.30;;;12.00;;
757;SDS011;363;48.764;9.172;2023-04-06T08:05:50;12.40;;;11.20;;
757;SDS011;363;48.764;9.172;2023-04-06T08:08:17;14.07;;;12.77;;
757;SDS011;363;48.764;9.172;2023-04-06T08:10:43;13.47;;;12.17;;
757;SDS011;363;48.764;9.172;2023-04-06T08:13:09;14.20;;;12.70;;
757;SDS011;363;48.764;9.172;2023-04-06T08:15:35;14.77;;;13.20;;
757;SDS011;363;48.764;9.172;2023-04-06T08:18:00;14.27;;;12.87;;
757;SDS011;363;48.764;9.172;2023-04-06T08:20:26;13.43;;;12.20;;
757;SDS011;363;48.764;9.172;2023-04-06T08:22:52;13.80;;;12.57;;
757;SDS011;363;48.764;9.172;2023-04-06T08:25:17;13.57;;;12.40;;
757;SDS011;363;48.764;9.172;2023-04-06T08:27:43;13.33;;;11.90;;
757;SDS011;363;48.764;9.172;2023-04-06T08:30:08;13.27;;;12.07;;
757;SDS011;363;48.764;9.172;2023-04-06T08:32:34;13.90;;;12.37;;
757;SDS011;363;48.764;9.172;2023-04-06T08:35:00;12.90;;;11.70;;
757;SDS011;363;48.764;9.172;2023-04-06T08:37:26;12.83;;;11.63;;
757;SDS011;363;48.764;9.172;2023-04-06T08:39:52;13.40;;;12.13;;
757;SDS011;363;48.764;9.172;2023-04-06T08:42:21;14.67;;;13.33;;
757;SDS011;363;48.764;9.172;2023-04-06T08:44:49;13.30;;;11.87;;
757;SDS011;363;48.764;9.172;2023-04-06T08:47:17;14.30;;;11.93;;
757;SDS011;363;48.764;9.172;2023-04-06T08:49:43;12.40;;;11.27;;
757;SDS011;363;48.764;9.172;2023-04-06T08:52:10;15.23;;;13.40;;
757;SDS011;363;48.764;9.172;2023-04-06T08:54:36;12.73;;;11.43;;
757;SDS011;363;48.764;9.172;2023-04-06T08:57:02;12.20;;;11.17;;
757;SDS011;363;48.764;9.172;2023-04-06T08:59:29;12.60;;;11.40;;
757;SDS011;363;48.764;9.172;2023-04-06T09:01:55;13.37;;;12.07;;
757;SDS011;363;48.764;9.172;2023-04-06T09:04:21;15.33;;;12.87;;
757;SDS011;363;48.764;9.172;2023-04-06T09:06:47;12.60;;;11.50;;
757;SDS011;363;48.764;9.172;2023-04-06T09:09:12;12.17;;;11.07;;
757;SDS011;363;48.764;9.172;2023-04-06T09:11:48;13.40;;;12.10;;
757;SDS011;363;48.764;9.172;2023-04-06T09:14:14;12.13;;;11.03;;
757;SDS011;363;48.764;9.172;2023-04-06T09:16:42;11.40;;;10.20;;
757;SDS011;363;48.764;9.172;2023-04-06T09:19:09;11.93;;;10.80;;
757;SDS011;363;48.764;9.172;2023-04-06T09:21:35;12.10;;;11.00;;
757;SDS011;363;48.764;9.172;2023-04-06T09:24:02;12.30;;;11.10;;
757;SDS011;363;48.764;9.172;2023-04-06T09:26:28;12.05;;;10.82;;
757;SDS011;363;48.764;9.172;2023-04-06T09:28:56;10.83;;;9.73;;
757;SDS011;363;48.764;9.172;2023-04-06T09:31:25;11.38;;;10.27;;
757;SDS011;363;48.764;9.172;2023-04-06T09:33:55;11.00;;;10.00;;
757;SDS011;363;48.764;9.172;2023-04-06T09:36:34;11.40;;;10.20;;
757;SDS011;363;48.764;9.172;2023-04-06T09:39:05;12.13;;;10.85;;
757;SDS011;363;48.764;9.172;2023-04-06T09:41:31;11.63;;;10.43;;
757;SDS011;363;48.764;9.172;2023-04-06T09:44:05;12.32;;;11.13;;
757;SDS011;363;48.764;9.172;2023-04-06T09:46:34;12.18;;;10.93;;
757;SDS011;363;48.764;9.172;2023-04-06T09:49:04;12.27;;;11.07;;
757;SDS011;363;48.764;9.172;2023-04-06T09:51:31;11.88;;;9.80;;
757;SDS011;363;48.764;9.172;2023-04-06T09:54:01;12.53;;;11.13;;
757;SDS011;363;48.764;9.172;2023-04-06T09:56:31;11.30;;;10.20;;
757;SDS011;363;48.764;9.172;2023-04-06T09:59:05;11.07;;;9.77;;
757;SDS011;363;48.764;9.172;2023-04-06T10:01:36;9.15;;;8.35;;
757;SDS011;363;48.764;9.172;2023-04-06T10:06:43;9.57;;;8.60;;
757;SDS011;363;48.764;9.172;2023-04-06T10:09:12;9.80;;;8.90;;
757;SDS011;363;48.764;9.172;2023-04-06T10:11:39;9.43;;;8.48;;
757;SDS011;363;48.764;9.172;2023-04-06T10:14:06;9.07;;;8.27;;
757;SDS011;363;48.764;9.172;2023-04-06T10:16:32;8.60;;;7.80;;
757;SDS011;363;48.764;9.172;2023-04-06T10:19:42;7.83;;;7.17;;
757;SDS011;363;48.764;9.172;2023-04-06T10:21:50;8.85;;;7.95;;
757;SDS011;363;48.764;9.172;2023-04-06T10:24:19;10.15;;;8.10;;
757;SDS011;363;48.764;9.172;2023-04-06T10:26:58;8.83;;;7.97;;
757;SDS011;363;48.764;9.172;2023-04-06T10:29:26;8.38;;;7.68;;
757;SDS011;363;48.764;9.172;2023-04-06T10:31:52;8.27;;;7.47;;
757;SDS011;363;48.764;9.172;2023-04-06T10:34:18;7.90;;;7.20;;
757;SDS011;363;48.764;9.172;2023-04-06T10:36:43;8.43;;;7.63;;
757;SDS011;363;48.764;9.172;2023-04-06T10:39:09;7.57;;;6.80;;
757;SDS011;363;48.764;9.172;2023-04-06T10:41:41;10.20;;;7.40;;
757;SDS011;363;48.764;9.172;2023-04-06T10:44:22;8.05;;;7.30;;
757;SDS011;363;48.764;9.172;2023-04-06T10:46:52;9.07;;;8.27;;
757;SDS011;363;48.764;9.172;2023-04-06T10:49:19;9.95;;;8.77;;
757;SDS011;363;48.764;9.172;2023-04-06T10:51:50;8.43;;;7.63;;
757;SDS011;363;48.764;9.172;2023-04-06T10:54:23;9.10;;;8.30;;
757;SDS011;363;48.764;9.172;2023-04-06T10:56:50;8.20;;;7.50;;
757;SDS011;363;48.764;9.172;2023-04-06T10:59:22;7.73;;;7.03;;
757;SDS011;363;48.764;9.172;2023-04-06T11:01:49;9.85;;;7.63;;
757;SDS011;363;48.764;9.172;2023-04-06T11:04:16;7.77;;;6.83;;
757;SDS011;363;48.764;9.172;2023-04-06T11:06:45;8.25;;;6.75;;
757;SDS011;363;48.764;9.172;2023-04-06T11:09:22;8.15;;;7.45;;
757;SDS011;363;48.764;9.172;2023-04-06T11:11:49;7.95;;;7.25;;
757;SDS011;363;48.764;9.172;2023-04-06T11:14:14;8.67;;;7.80;;
757;SDS011;363;48.764;9.172;2023-04-06T11:16:40;7.80;;;7.03;;
757;SDS011;363;48.764;9.172;2023-04-06T11:19:06;11.18;;;9.98;;
757;SDS011;363;48.764;9.172;2023-04-06T11:21:39;8.30;;;7.55;;
757;SDS011;363;48.764;9.172;2023-04-06T11:29:14;8.18;;;7.45;;
757;SDS011;363;48.764;9.172;2023-04-06T11:31:48;7.72;;;6.97;;
757;SDS011;363;48.764;9.172;2023-04-06T11:36:45;9.55;;;8.65;;
757;SDS011;363;48.764;9.172;2023-04-06T11:39:13;7.90;;;7.10;;
757;SDS011;363;48.764;9.172;2023-04-06T11:41:46;7.13;;;6.35;;
757;SDS011;363;48.764;9.172;2023-04-06T11:44:26;7.88;;;7.07;;
757;SDS011;363;48.764;9.172;2023-04-06T11:47:14;9.02;;;7.30;;
757;SDS011;363;48.764;9.172;2023-04-06T11:49:41;7.68;;;6.97;;
757;SDS011;363;48.764;9.172;2023-04-06T11:52:17;8.52;;;7.18;;
757;SDS011;363;48.764;9.172;2023-04-06T11:54:48;7.70;;;6.88;;
757;SDS011;363;48.764;9.172;2023-04-06T11:57:16;7.95;;;7.25;;
757;SDS011;363;48.764;9.172;2023-04-06T11:59:43;6.80;;;6.20;;
757;SDS011;363;48.764;9.172;2023-04-06T12:02:09;7.70;;;7.00;;
757;SDS011;363;48.764;9.172;2023-04-06T12:04:35;7.57;;;6.90;;
757;SDS011;363;48.764;9.172;2023-04-06T12:07:02;8.48;;;7.57;;
757;SDS011;363;48.764;9.172;2023-04-06T12:09:28;8.13;;;7.40;;
757;SDS011;363;48.764;9.172;2023-04-06T12:11:54;7.60;;;7.00;;
757;SDS011;363;48.764;9.172;2023-04-06T12:14:21;7.30;;;6.65;;
757;SDS011;363;48.764;9.172;2023-04-06T12:16:46;7.40;;;6.80;;
757;SDS011;363;48.764;9.172;2023-04-06T12:19:12;7.53;;;6.83;;
757;SDS011;363;48.764;9.172;2023-04-06T12:21:38;7.20;;;6.50;;
757;SDS011;363;48.764;9.172;2023-04-06T12:24:04;8.73;;;7.50;;
757;SDS011;363;48.764;9.172;2023-04-06T12:26:30;6.70;;;6.10;;
757;SDS011;363;48.764;9.172;2023-04-06T12:28:57;9.68;;;6.88;;
757;SDS011;363;48.764;9.172;2023-04-06T12:31:32;7.82;;;6.93;;
757;SDS011;363;48.764;9.172;2023-04-06T12:33:59;7.28;;;6.57;;
757;SDS011;363;48.764;9.172;2023-04-06T12:36:24;7.80;;;7.10;;
757;SDS011;363;48.764;9.172;2023-04-06T12:38:51;9.63;;;6.80;;
757;SDS011;363;48.764;9.172;2023-04-06T12:41:17;7.40;;;6.13;;
757;SDS011;363;48.764;9.172;2023-04-06T12:43:44;8.10;;;7.30;;
757;SDS011;363;48.764;9.172;2023-04-06T12:46:10;6.43;;;5.85;;
757;SDS011;363;48.764;9.172;2023-04-06T12:48:36;6.55;;;5.95;;
757;SDS011;363;48.764;9.172;2023-04-06T12:51:03;7.28;;;6.57;;
757;SDS011;363;48.764;9.172;2023-04-06T12:53:30;7.60;;;6.78;;
757;SDS011;363;48.764;9.172;2023-04-06T12:55:57;7.32;;;6.40;;
757;SDS011;363;48.764;9.172;2023-04-06T12:58:23;7.60;;;6.65;;
757;SDS011;363;48.764;9.172;2023-04-06T13:00:50;7.55;;;6.82;;
757;SDS011;363;48.764;9.172;2023-04-06T13:03:16;7.40;;;6.70;;
757;SDS011;363;48.764;9.172;2023-04-06T13:05:43;7.88;;;7.07;;
757;SDS011;363;48.764;9.172;2023-04-06T13:08:10;7.70;;;6.30;;
757;SDS011;363;48.764;9.172;2023-04-06T13:10:36;6.90;;;6.13;;
757;SDS011;363;48.764;9.172;2023-04-06T13:13:02;8.37;;;6.07;;
757;SDS011;363;48.764;9.172;2023-04-06T13:15:27;7.07;;;6.37;;
757;SDS011;363;48.764;9.172;2023-04-06T13:17:53;14.90;;;8.70;;
757;SDS011;363;48.764;9.172;2023-04-06T13:20:19;6.90;;;6.17;;
757;SDS011;363;48.764;9.172;2023-04-06T13:22:45;8.93;;;6.20;;
757;SDS011;363;48.764;9.172;2023-04-06T13:25:10;5.83;;;5.33;;
757;SDS011;363;48.764;9.172;2023-04-06T13:27:36;11.77;;;10.63;;
757;SDS011;363;48.764;9.172;2023-04-06T13:30:04;11.90;;;7.23;;
757;SDS011;363;48.764;9.172;2023-04-06T13:32:30;8.98;;;7.15;;
757;SDS011;363;48.764;9.172;2023-04-06T13:34:56;8.30;;;6.30;;
757;SDS011;363;48.764;9.172;2023-04-06T13:37:22;6.78;;;6.05;;
757;SDS011;363;48.764;9.172;2023-04-06T13:39:48;7.07;;;5.82;;
757;SDS011;363;48.764;9.172;2023-04-06T13:42:14;6.83;;;6.17;;
757;SDS011;363;48.764;9.172;2023-04-06T13:44:39;6.60;;;6.00;;
757;SDS011;363;48.764;9.172;2023-04-06T13:47:05;6.57;;;5.90;;
757;SDS011;363;48.764;9.172;2023-04-06T13:49:31;6.30;;;5.70;;
757;SDS011;363;48.764;9.172;2023-04-06T13:51:57;7.78;;;6.40;;
757;SDS011;363;48.764;9.172;2023-04-06T13:54:23;10.00;;;6.67;;
757;SDS011;363;48.764;9.172;2023-04-06T13:56:48;7.70;;;6.77;;
757;SDS011;363;48.764;9.172;2023-04-06T13:59:14;7.90;;;7.10;;
757;SDS011;363;48.764;9.172;2023-04-06T14:01:39;7.27;;;6.60;;
757;SDS011;363;48.764;9.172;2023-04-06T14:04:05;6.27;;;5.67;;
757;SDS011;363;48.764;9.172;2023-04-06T14:06:31;7.37;;;6.67;;
757;SDS011;363;48.764;9.172;2023-04-06T14:08:57;8.03;;;7.03;;
757;SDS011;363;48.764;9.172;2023-04-06T14:11:22;8.10;;;6.87;;
757;SDS011;363;48.764;9.172;2023-04-06T14:13:48;9.53;;;6.53;;
757;SDS011;363;48.764;9.172;2023-04-06T14:16:14;8.50;;;6.80;;
757;SDS011;363;48.764;9.172;2023-04-06T14:18:40;6.88;;;6.18;;
757;SDS011;363;48.764;9.172;2023-04-06T14:21:05;7.67;;;6.87;;
757;SDS011;363;48.764;9.172;2023-04-06T14:23:31;6.43;;;5.83;;
757;SDS011;363;48.764;9.172;2023-04-06T14:26:04;14.90;;;9.40;;
757;SDS011;363;48.764;9.172;2023-04-06T14:28:32;8.98;;;7.50;;
757;SDS011;363;48.764;9.172;2023-04-06T14:31:01;6.80;;;6.03;;
757;SDS011;363;48.764;9.172;2023-04-06T14:33:33;9.70;;;6.70;;
757;SDS011;363;48.764;9.172;2023-04-06T14:36:02;9.45;;;6.78;;
757;SDS011;363;48.764;9.172;2023-04-06T14:38:28;8.52;;;7.10;;
757;SDS011;363;48.764;9.172;2023-04-06T14:40:54;6.80;;;6.07;;
757;SDS011;363;48.764;9.172;2023-04-06T14:43:20;9.65;;;7.57;;
757;SDS011;363;48.764;9.172;2023-04-06T14:45:46;6.97;;;6.30;;
757;SDS011;363;48.764;9.172;2023-04-06T14:48:12;10.20;;;6.10;;
757;SDS011;363;48.764;9.172;2023-04-06T14:50:41;8.30;;;6.00;;
757;SDS011;363;48.764;9.172;2023-04-06T14:53:11;8.88;;;6.60;;
757;SDS011;363;48.764;9.172;2023-04-06T14:55:39;7.50;;;6.73;;
757;SDS011;363;48.764;9.172;2023-04-06T14:58:06;9.05;;;6.78;;
757;SDS011;363;48.764;9.172;2023-04-06T15:00:31;7.77;;;7.00;;
757;SDS011;363;48.764;9.172;2023-04-06T15:02:57;7.20;;;6.00;;
757;SDS011;363;48.764;9.172;2023-04-06T15:05:23;7.93;;;6.03;;
757;SDS011;363;48.764;9.172;2023-04-06T15:07:48;6.27;;;5.37;;
757;SDS011;363;48.764;9.172;2023-04-06T15:10:14;5.97;;;5.10;;
757;SDS011;363;48.764;9.172;2023-04-06T15:12:40;6.20;;;5.60;;
757;SDS011;363;48.764;9.172;2023-04-06T15:15:06;6.30;;;5.70;;
757;SDS011;363;48.764;9.172;2023-04-06T15:17:32;7.03;;;6.38;;
757;SDS011;363;48.764;9.172;2023-04-06T15:19:57;6.97;;;6.30;;
757;SDS011;363;48.764;9.172;2023-04-06T15:22:23;10.23;;;9.13;;
757;SDS011;363;48.764;9.172;2023-04-06T15:24:48;9.60;;;7.57;;
757;SDS011;363;48.764;9.172;2023-04-06T15:27:14;7.87;;;7.07;;
757;SDS011;363;48.764;9.172;2023-04-06T15:29:40;6.43;;;5.80;;
757;SDS011;363;48.764;9.172;2023-04-06T15:32:05;6.87;;;6.20;;
757;SDS011;363;48.764;9.172;2023-04-06T15:34:31;6.00;;;5.40;;
757;SDS011;363;48.764;9.172;2023-04-06T15:37:01;7.25;;;6.35;;
757;SDS011;363;48.764;9.172;2023-04-06T15:39:28;8.40;;;6.95;;
757;SDS011;363;48.764;9.172;2023-04-06T15:41:54;8.43;;;7.47;;